ESUP

Pajala Airport

Sweden
METAR ESUP 181720Z AUTO 00000KT 9999 NCD 05/03 Q1002
Observed Flight Rules
Sep-18 @ 17:20 UTC (13 minutes ago) Visual Flight Rules
Visibility Clouds
10,000+ meters
  • Clear skies
Temperatures Readings
Current 5°C / 41°F
Dewpoint 3°C / 37°F
Humidity 87%
Altimeter 29.59" Hg
Pressure 1002 hPa
Elevation 165
METAR ESUP 181720Z AUTO 00000KT 9999 NCD 05/03 Q1002
Observed Flight Rules
Sep-18 @ 17:20 UTC
(13 minutes ago)
VFR
Clouds
  • Clear skies
Temperature Dewpoint
5°C / 41°F 3°C / 37°F
Humidity Altimeter Pressure
87% 29.59" Hg 1002 hPa